createdAt,value
2022-10-19T00:00:10.120Z,0.00
2022-10-19T00:01:10.116Z,0.00
2022-10-19T00:02:10.224Z,0.00
2022-10-19T00:03:10.071Z,0.00
2022-10-19T00:04:10.052Z,0.00
2022-10-19T00:05:10.046Z,0.00
2022-10-19T00:06:10.032Z,0.00
2022-10-19T00:07:10.014Z,0.00
2022-10-19T00:08:10.003Z,0.00
2022-10-19T00:09:09.983Z,0.00
2022-10-19T00:10:09.988Z,0.00
2022-10-19T00:11:09.965Z,0.00
2022-10-19T00:12:10.041Z,0.00
2022-10-19T00:13:09.937Z,0.00
2022-10-19T00:14:10.033Z,0.00
2022-10-19T00:15:09.907Z,0.00
2022-10-19T00:16:11.431Z,0.00
2022-10-19T00:17:09.884Z,0.00
2022-10-19T00:18:09.883Z,0.00
2022-10-19T00:19:09.857Z,0.00
2022-10-19T00:20:09.863Z,0.00
2022-10-19T00:21:09.855Z,0.00
2022-10-19T00:22:13.024Z,0.00
2022-10-19T00:23:09.909Z,0.00
2022-10-19T00:24:09.874Z,0.00
2022-10-19T00:25:09.798Z,0.00
2022-10-19T00:26:09.775Z,0.00
2022-10-19T00:27:09.767Z,0.00
2022-10-19T00:28:09.749Z,0.00
2022-10-19T00:29:09.837Z,0.00
2022-10-19T00:30:09.715Z,0.00
2022-10-19T00:31:09.713Z,0.00
2022-10-19T00:32:09.707Z,0.00
2022-10-19T00:33:09.678Z,0.00
2022-10-19T00:34:09.682Z,0.00
2022-10-19T00:35:09.660Z,0.00
2022-10-19T00:36:09.647Z,0.00
2022-10-19T00:37:09.644Z,0.00
2022-10-19T00:38:09.638Z,0.00
2022-10-19T00:39:09.608Z,0.00
2022-10-19T00:40:09.598Z,0.00
2022-10-19T00:41:09.588Z,0.00
2022-10-19T00:42:09.684Z,0.00
2022-10-19T00:43:09.546Z,0.00
2022-10-19T00:44:09.537Z,0.00
2022-10-19T00:45:09.516Z,0.00
2022-10-19T00:46:09.530Z,0.00
2022-10-19T00:47:09.506Z,0.00
2022-10-19T00:48:09.477Z,0.00
2022-10-19T00:49:10.907Z,0.00
2022-10-19T00:50:09.476Z,0.00
2022-10-19T00:51:09.456Z,0.00
2022-10-19T00:52:09.446Z,0.00
2022-10-19T00:53:09.448Z,0.00
2022-10-19T00:54:09.423Z,0.00
2022-10-19T00:55:09.421Z,0.00
2022-10-19T00:56:09.396Z,0.00
2022-10-19T00:57:09.382Z,0.00
2022-10-19T00:58:09.358Z,0.00
2022-10-19T00:59:09.358Z,0.00
2022-10-19T01:00:09.362Z,0.00
2022-10-19T01:01:09.415Z,0.00
2022-10-19T01:02:09.307Z,0.00
2022-10-19T01:03:09.295Z,0.00
2022-10-19T01:04:09.297Z,0.00
2022-10-19T01:05:09.270Z,0.00
2022-10-19T01:06:09.260Z,0.00
2022-10-19T01:07:09.246Z,0.00
2022-10-19T01:08:09.239Z,0.00
2022-10-19T01:09:09.240Z,0.00
2022-10-19T01:10:09.291Z,0.00
2022-10-19T01:11:09.259Z,0.00
2022-10-19T01:12:09.188Z,0.00
2022-10-19T01:13:09.168Z,0.00
2022-10-19T01:14:09.156Z,0.00
2022-10-19T01:15:09.157Z,0.00
2022-10-19T01:16:09.128Z,0.00
2022-10-19T01:17:09.117Z,0.00
2022-10-19T01:18:09.119Z,0.00
2022-10-19T01:19:09.090Z,0.00
2022-10-19T01:20:09.089Z,0.00
2022-10-19T01:21:09.059Z,0.00
2022-10-19T01:22:09.057Z,0.00
2022-10-19T01:23:09.041Z,0.00
2022-10-19T01:24:09.030Z,0.00
2022-10-19T01:25:09.011Z,0.00
2022-10-19T01:26:09.022Z,0.00
2022-10-19T01:27:09.018Z,0.00
2022-10-19T01:28:08.978Z,0.00
2022-10-19T01:29:08.987Z,0.00
2022-10-19T01:30:08.958Z,0.00
2022-10-19T01:31:08.956Z,0.00
2022-10-19T01:32:08.938Z,0.00
2022-10-19T01:33:08.908Z,0.00
2022-10-19T01:34:08.900Z,0.00
2022-10-19T01:35:08.884Z,0.00
2022-10-19T01:36:08.905Z,0.00
2022-10-19T01:37:08.858Z,0.00
2022-10-19T01:38:08.928Z,0.00
2022-10-19T01:39:08.847Z,0.00
2022-10-19T01:40:08.809Z,0.00
2022-10-19T01:41:08.809Z,0.00
2022-10-19T01:42:08.799Z,0.00
2022-10-19T01:43:08.788Z,0.00
2022-10-19T01:44:08.778Z,0.00
2022-10-19T01:45:08.751Z,0.00
2022-10-19T01:46:08.742Z,0.00
2022-10-19T01:47:08.728Z,0.00
2022-10-19T01:48:08.721Z,0.00
2022-10-19T01:49:08.712Z,0.00
2022-10-19T01:50:08.729Z,0.00
2022-10-19T01:51:08.672Z,0.00
2022-10-19T01:52:08.671Z,0.00
2022-10-19T01:53:08.681Z,0.00
2022-10-19T01:54:08.640Z,0.00
2022-10-19T01:55:08.640Z,0.00
2022-10-19T01:56:08.617Z,0.00
2022-10-19T01:57:08.599Z,0.00
2022-10-19T01:58:09.679Z,0.00
2022-10-19T01:59:08.572Z,0.00
2022-10-19T02:00:08.578Z,0.00
2022-10-19T02:01:08.668Z,0.00
2022-10-19T02:02:08.553Z,0.00
2022-10-19T02:03:08.522Z,0.00
2022-10-19T02:04:08.552Z,0.00
2022-10-19T02:05:08.501Z,0.00
2022-10-19T02:06:08.503Z,0.00
2022-10-19T02:07:08.481Z,0.00
2022-10-19T02:08:08.462Z,0.00
2022-10-19T02:09:08.451Z,0.00
2022-10-19T02:10:15.561Z,0.00
2022-10-19T02:11:08.426Z,0.00
2022-10-19T02:12:08.418Z,0.00
2022-10-19T02:13:08.411Z,0.00
2022-10-19T02:14:08.376Z,0.00
2022-10-19T02:15:08.365Z,0.00
2022-10-19T02:16:08.381Z,0.00
2022-10-19T02:17:08.368Z,0.00
2022-10-19T02:18:08.339Z,0.00
2022-10-19T02:19:08.326Z,0.00
2022-10-19T02:20:08.336Z,0.00
2022-10-19T02:21:08.335Z,0.00
2022-10-19T02:22:08.311Z,0.00
2022-10-19T02:23:08.281Z,0.00
2022-10-19T02:24:08.277Z,0.00
2022-10-19T02:25:08.257Z,0.00
2022-10-19T02:26:08.227Z,0.00
2022-10-19T02:27:08.218Z,0.00
2022-10-19T02:28:08.208Z,0.00
2022-10-19T02:29:08.185Z,0.00
2022-10-19T02:30:08.177Z,0.00
2022-10-19T02:31:08.187Z,0.00
2022-10-19T02:32:08.175Z,0.00
2022-10-19T02:33:08.160Z,0.00
2022-10-19T02:34:08.139Z,0.00
2022-10-19T02:35:08.119Z,0.00
2022-10-19T02:36:08.107Z,0.00
2022-10-19T02:37:08.083Z,0.00
2022-10-19T02:38:08.121Z,0.00
2022-10-19T02:39:08.058Z,0.00
2022-10-19T02:40:08.053Z,0.00
2022-10-19T02:41:08.049Z,0.00
2022-10-19T02:42:08.041Z,0.00
2022-10-19T02:43:08.032Z,0.00
2022-10-19T02:44:07.999Z,0.00
2022-10-19T02:45:08.009Z,0.00
2022-10-19T02:46:07.978Z,0.00
2022-10-19T02:47:07.961Z,0.00
2022-10-19T02:48:07.967Z,0.00
2022-10-19T02:49:07.938Z,0.00
2022-10-19T02:50:07.937Z,0.00
2022-10-19T02:51:07.947Z,0.00
2022-10-19T02:52:07.899Z,0.00
2022-10-19T02:53:07.913Z,0.00
2022-10-19T02:54:07.868Z,0.00
2022-10-19T02:55:07.867Z,0.00
2022-10-19T02:56:07.851Z,0.00
2022-10-19T02:57:07.831Z,0.00
2022-10-19T02:58:07.831Z,0.00
2022-10-19T02:59:07.811Z,0.00
2022-10-19T03:00:07.790Z,0.00
2022-10-19T03:01:07.895Z,0.00
2022-10-19T03:02:07.799Z,0.00
2022-10-19T03:03:07.762Z,0.00
2022-10-19T03:04:07.750Z,0.00
2022-10-19T03:05:07.730Z,0.00
2022-10-19T03:06:07.730Z,0.00
2022-10-19T03:07:07.691Z,0.00
2022-10-19T03:08:07.708Z,0.00
2022-10-19T03:09:07.660Z,0.00
2022-10-19T03:10:07.672Z,0.00
2022-10-19T03:11:07.672Z,0.00
2022-10-19T03:12:07.643Z,0.00
2022-10-19T03:13:07.653Z,0.00
2022-10-19T03:14:07.621Z,0.00
2022-10-19T03:15:07.601Z,0.00
2022-10-19T03:16:07.594Z,0.00
2022-10-19T03:17:07.611Z,0.00
2022-10-19T03:18:07.602Z,0.00
2022-10-19T03:19:07.578Z,0.00
2022-10-19T03:20:07.530Z,0.00
2022-10-19T03:21:07.539Z,0.00
2022-10-19T03:22:07.500Z,0.00
2022-10-19T03:23:07.492Z,0.00
2022-10-19T03:24:07.481Z,0.00
2022-10-19T03:25:07.463Z,0.00
2022-10-19T03:26:09.997Z,0.00
2022-10-19T03:27:07.431Z,0.00
2022-10-19T03:28:07.485Z,0.00
2022-10-19T03:29:07.450Z,0.00
2022-10-19T03:30:07.412Z,0.00
2022-10-19T03:31:07.424Z,0.00
2022-10-19T03:32:07.385Z,0.00
2022-10-19T03:33:07.365Z,0.00
2022-10-19T03:34:07.393Z,0.00
2022-10-19T03:35:07.342Z,0.00
2022-10-19T03:36:07.392Z,0.00
2022-10-19T03:37:07.312Z,0.00
2022-10-19T03:38:07.310Z,0.00
2022-10-19T03:39:08.733Z,0.00
2022-10-19T03:40:07.293Z,0.00
2022-10-19T03:41:07.289Z,0.00
2022-10-19T03:42:07.251Z,0.00
2022-10-19T03:43:07.282Z,0.00
2022-10-19T03:44:07.243Z,0.00
2022-10-19T03:45:07.222Z,0.00
2022-10-19T03:46:07.214Z,0.00
2022-10-19T03:47:07.195Z,0.00
2022-10-19T03:48:07.173Z,0.00
2022-10-19T03:49:07.214Z,0.00
2022-10-19T03:50:07.158Z,0.00
2022-10-19T03:51:07.171Z,0.00
2022-10-19T03:52:07.142Z,0.00
2022-10-19T03:53:07.115Z,0.00
2022-10-19T03:54:07.092Z,0.00
2022-10-19T03:55:07.084Z,0.00
2022-10-19T03:56:07.070Z,0.00
2022-10-19T03:57:07.064Z,0.00
2022-10-19T03:58:07.094Z,0.00
2022-10-19T03:59:07.028Z,0.00
2022-10-19T04:00:07.015Z,0.00
2022-10-19T04:01:07.046Z,0.00
2022-10-19T04:02:06.985Z,0.00
2022-10-19T04:03:07.012Z,0.00
2022-10-19T04:04:06.970Z,0.00
2022-10-19T04:05:06.955Z,0.00
2022-10-19T04:06:06.943Z,0.00
2022-10-19T04:07:06.944Z,0.00
2022-10-19T04:08:06.913Z,0.00
2022-10-19T04:09:06.932Z,0.00
2022-10-19T04:10:06.890Z,0.00
2022-10-19T04:11:06.907Z,0.00
2022-10-19T04:12:06.871Z,0.00
2022-10-19T04:13:06.863Z,0.00
2022-10-19T04:14:06.892Z,0.00
2022-10-19T04:15:06.894Z,0.00
2022-10-19T04:16:06.816Z,0.00
2022-10-19T04:17:06.827Z,0.00
2022-10-19T04:18:06.796Z,0.00
2022-10-19T04:19:06.795Z,0.00
2022-10-19T04:20:06.765Z,0.00
2022-10-19T04:21:06.780Z,0.00
2022-10-19T04:22:06.735Z,0.00
2022-10-19T04:23:06.784Z,0.00
2022-10-19T04:24:06.693Z,0.00
2022-10-19T04:25:06.695Z,0.00
2022-10-19T04:26:06.665Z,0.00
2022-10-19T04:27:06.665Z,0.00
2022-10-19T04:28:06.648Z,0.00
2022-10-19T04:29:06.724Z,0.00
2022-10-19T04:30:06.637Z,0.00
2022-10-19T04:31:06.624Z,0.00
2022-10-19T04:32:06.628Z,0.00
2022-10-19T04:33:06.606Z,0.00
2022-10-19T04:34:06.616Z,0.00
2022-10-19T04:35:06.616Z,0.00
2022-10-19T04:36:06.555Z,0.00
2022-10-19T04:37:06.563Z,0.00
2022-10-19T04:38:06.530Z,0.00
2022-10-19T04:39:06.517Z,0.00
2022-10-19T04:40:07.421Z,0.00
2022-10-19T04:41:06.567Z,0.00
2022-10-19T04:42:06.468Z,0.00
2022-10-19T04:43:06.457Z,0.00
2022-10-19T04:44:06.448Z,0.00
2022-10-19T04:45:06.436Z,0.00
2022-10-19T04:46:06.423Z,0.00
2022-10-19T04:47:06.416Z,0.00
2022-10-19T04:48:06.416Z,0.00
2022-10-19T04:49:06.395Z,0.00
2022-10-19T04:50:06.374Z,0.00
2022-10-19T04:51:06.375Z,0.00
2022-10-19T04:52:06.346Z,0.00
2022-10-19T04:53:06.344Z,0.00
2022-10-19T04:54:06.314Z,0.00
2022-10-19T04:55:06.315Z,0.00
2022-10-19T04:56:06.299Z,0.00
2022-10-19T04:57:06.288Z,0.00
2022-10-19T04:58:06.268Z,0.00
2022-10-19T04:59:06.275Z,0.00
2022-10-19T05:00:06.270Z,0.00
2022-10-19T05:01:06.305Z,0.00
2022-10-19T05:02:06.208Z,0.00
2022-10-19T05:03:06.224Z,0.00
2022-10-19T05:04:06.256Z,0.00
2022-10-19T05:05:06.201Z,0.00
2022-10-19T05:06:06.157Z,0.00
2022-10-19T05:07:06.155Z,0.00
2022-10-19T05:08:06.126Z,0.00
2022-10-19T05:09:06.132Z,0.00
2022-10-19T05:10:06.106Z,4.00
2022-10-19T05:11:06.122Z,0.00
2022-10-19T05:12:06.089Z,0.00
2022-10-19T05:13:06.108Z,4.00
2022-10-19T05:14:06.057Z,4.00
2022-10-19T05:15:06.051Z,4.00
2022-10-19T05:16:06.078Z,4.00
2022-10-19T05:17:06.037Z,4.00
2022-10-19T05:18:06.038Z,4.00
2022-10-19T05:19:06.000Z,4.00
2022-10-19T05:20:05.967Z,8.00
2022-10-19T05:21:06.047Z,8.00
2022-10-19T05:22:05.938Z,12.00
2022-10-19T05:23:07.318Z,16.00
2022-10-19T05:24:05.927Z,16.00
2022-10-19T05:25:05.927Z,20.00
2022-10-19T05:26:05.927Z,24.00
2022-10-19T05:27:05.901Z,28.00
2022-10-19T05:28:05.908Z,32.00
2022-10-19T05:29:05.903Z,36.00
2022-10-19T05:30:05.850Z,40.00
2022-10-19T05:31:05.856Z,48.00
2022-10-19T05:32:05.859Z,52.00
2022-10-19T05:33:05.934Z,60.00
2022-10-19T05:34:05.814Z,68.00
2022-10-19T05:35:05.835Z,76.00
2022-10-19T05:36:05.757Z,84.00
2022-10-19T05:37:05.747Z,96.00
2022-10-19T05:38:05.729Z,100.00
2022-10-19T05:39:05.747Z,108.00
2022-10-19T05:40:05.727Z,116.00
2022-10-19T05:41:05.718Z,124.00
2022-10-19T05:42:05.717Z,136.00
2022-10-19T05:43:05.688Z,152.00
2022-10-19T05:44:05.720Z,176.00
2022-10-19T05:45:05.673Z,192.00
2022-10-19T05:46:05.644Z,216.00
2022-10-19T05:47:05.632Z,240.00
2022-10-19T05:48:05.667Z,272.00
2022-10-19T05:49:05.599Z,292.00
2022-10-19T05:50:05.606Z,300.00
2022-10-19T05:51:05.589Z,296.00
2022-10-19T05:52:05.557Z,292.00
2022-10-19T05:53:05.558Z,300.00
2022-10-19T05:54:05.553Z,308.00
2022-10-19T05:55:05.553Z,316.00
2022-10-19T05:56:05.538Z,316.00
2022-10-19T05:57:05.492Z,304.00
2022-10-19T05:58:05.493Z,300.00
2022-10-19T05:59:05.482Z,292.00
2022-10-19T06:00:05.483Z,288.00
2022-10-19T06:01:05.441Z,272.00
2022-10-19T06:02:05.496Z,252.00
2022-10-19T06:03:05.417Z,240.00
2022-10-19T06:04:05.426Z,232.00
2022-10-19T06:05:05.389Z,232.00
2022-10-19T06:06:05.363Z,228.00
2022-10-19T06:07:05.375Z,232.00
2022-10-19T06:08:05.422Z,244.00
2022-10-19T06:09:05.341Z,240.00
2022-10-19T06:10:05.349Z,236.00
2022-10-19T06:11:05.361Z,228.00
2022-10-19T06:12:05.339Z,224.00
2022-10-19T06:13:05.291Z,244.00
2022-10-19T06:14:05.276Z,268.00
2022-10-19T06:15:05.882Z,296.00
2022-10-19T06:16:05.294Z,328.00
2022-10-19T06:17:05.241Z,364.00
2022-10-19T06:18:05.219Z,416.00
2022-10-19T06:19:05.245Z,496.00
2022-10-19T06:20:05.190Z,556.00
2022-10-19T06:21:05.190Z,636.00
2022-10-19T06:22:05.180Z,756.00
2022-10-19T06:23:05.159Z,908.00
2022-10-19T06:24:05.148Z,1040.00
2022-10-19T06:25:05.131Z,1132.00
2022-10-19T06:26:05.120Z,1164.00
2022-10-19T06:27:05.111Z,1188.00
2022-10-19T06:28:05.109Z,1200.00
2022-10-19T06:29:05.081Z,1200.00
2022-10-19T06:30:05.087Z,1160.00
2022-10-19T06:31:08.440Z,1108.00
2022-10-19T06:32:05.054Z,1076.00
2022-10-19T06:33:05.076Z,1188.00
2022-10-19T06:34:05.071Z,1104.00
2022-10-19T06:35:04.992Z,1100.00
2022-10-19T06:36:04.994Z,1096.00
2022-10-19T06:37:05.001Z,1100.00
2022-10-19T06:38:04.968Z,1104.00
2022-10-19T06:39:04.969Z,1108.00
2022-10-19T06:40:07.236Z,1116.00
2022-10-19T06:41:05.009Z,1140.00
2022-10-19T06:42:04.914Z,1168.00
2022-10-19T06:43:04.921Z,1196.00
2022-10-19T06:44:04.893Z,1228.00
2022-10-19T06:45:04.871Z,1252.00
2022-10-19T06:46:04.857Z,1256.00
2022-10-19T06:47:04.842Z,1276.00
2022-10-19T06:48:07.491Z,1304.00
2022-10-19T06:49:04.836Z,1312.00
2022-10-19T06:50:04.812Z,1324.00
2022-10-19T06:51:06.304Z,1352.00
2022-10-19T06:52:04.793Z,1396.00
2022-10-19T06:53:04.765Z,1432.00
2022-10-19T06:54:04.777Z,1464.00
2022-10-19T06:55:04.744Z,1524.00
2022-10-19T06:56:04.719Z,1608.00
2022-10-19T06:57:04.706Z,1720.00
2022-10-19T06:58:04.689Z,1816.00
2022-10-19T06:59:04.681Z,1892.00
2022-10-19T07:00:04.692Z,1972.00
2022-10-19T07:01:04.734Z,2060.00
2022-10-19T07:02:04.633Z,2168.00
2022-10-19T07:03:04.633Z,2264.00
2022-10-19T07:04:04.620Z,2352.00
2022-10-19T07:05:07.025Z,2412.00
2022-10-19T07:06:04.620Z,2376.00
2022-10-19T07:07:04.615Z,2288.00
2022-10-19T07:08:04.625Z,2256.00
2022-10-19T07:09:04.607Z,2240.00
2022-10-19T07:10:04.554Z,2192.00
2022-10-19T07:11:04.537Z,2100.00
2022-10-19T07:12:04.523Z,2132.00
2022-10-19T07:13:04.501Z,2276.00
2022-10-19T07:14:04.495Z,2208.00
2022-10-19T07:15:04.484Z,1840.00
2022-10-19T07:16:04.483Z,1740.00
2022-10-19T07:17:04.457Z,1804.00
2022-10-19T07:18:04.435Z,1848.00
2022-10-19T07:19:04.420Z,1936.00
2022-10-19T07:20:04.414Z,2064.00
2022-10-19T07:21:04.424Z,2172.00
2022-10-19T07:22:04.405Z,2264.00
2022-10-19T07:23:04.386Z,2408.00
2022-10-19T07:24:04.364Z,2540.00
2022-10-19T07:25:04.352Z,2684.00
2022-10-19T07:26:04.355Z,2728.00
2022-10-19T07:27:04.324Z,2684.00
2022-10-19T07:28:04.325Z,2660.00
2022-10-19T07:29:04.301Z,2676.00
2022-10-19T07:30:04.291Z,2680.00
2022-10-19T07:31:04.271Z,2704.00
2022-10-19T07:32:04.263Z,2724.00
2022-10-19T07:33:04.331Z,2736.00
2022-10-19T07:34:04.224Z,2688.00
2022-10-19T07:35:04.289Z,2736.00
2022-10-19T07:36:04.210Z,2804.00
2022-10-19T07:37:04.233Z,2804.00
2022-10-19T07:38:04.201Z,2748.00
2022-10-19T07:39:04.187Z,2740.00
2022-10-19T07:40:04.157Z,2784.00
2022-10-19T07:41:04.155Z,2868.00
2022-10-19T07:42:04.153Z,2892.00
2022-10-19T07:43:04.125Z,2912.00
2022-10-19T07:44:04.103Z,2960.00
2022-10-19T07:45:04.105Z,2920.00
2022-10-19T07:46:04.094Z,2784.00
2022-10-19T07:47:04.097Z,2704.00
2022-10-19T07:48:04.054Z,2652.00
2022-10-19T07:49:04.075Z,2560.00
2022-10-19T07:50:04.065Z,2696.00
2022-10-19T07:51:04.140Z,2916.00
2022-10-19T07:52:04.005Z,3088.00
2022-10-19T07:53:04.044Z,3180.00
2022-10-19T07:54:03.983Z,3252.00
2022-10-19T07:55:03.978Z,3280.00
2022-10-19T07:56:03.968Z,3336.00
2022-10-19T07:57:03.935Z,3412.00
2022-10-19T07:58:03.953Z,3560.00
2022-10-19T07:59:03.925Z,3748.00
2022-10-19T08:00:03.915Z,3812.00
2022-10-19T08:01:03.906Z,3876.00
2022-10-19T08:02:03.928Z,3844.00
2022-10-19T08:03:57.522Z,3708.00
2022-10-19T08:05:07.851Z,3540.00
2022-10-19T08:06:04.877Z,3556.00
2022-10-19T08:07:03.856Z,3480.00
2022-10-19T08:08:03.805Z,3888.00
2022-10-19T08:09:03.884Z,3460.00
2022-10-19T08:10:10.938Z,3652.00
2022-10-19T08:11:03.818Z,3820.00
2022-10-19T08:12:03.748Z,3932.00
2022-10-19T08:13:03.739Z,4000.00
2022-10-19T08:14:03.741Z,4212.00
2022-10-19T08:15:03.739Z,4656.00
2022-10-19T08:16:03.759Z,5108.00
2022-10-19T08:17:03.700Z,4932.00
2022-10-19T08:18:03.691Z,4484.00
2022-10-19T08:19:03.675Z,4308.00
2022-10-19T08:20:03.768Z,4136.00
2022-10-19T08:21:03.659Z,4016.00
2022-10-19T08:22:03.670Z,3972.00
2022-10-19T08:23:03.609Z,4056.00
2022-10-19T08:24:03.589Z,4156.00
2022-10-19T08:25:03.627Z,4104.00
2022-10-19T08:26:03.678Z,4004.00
2022-10-19T08:27:03.560Z,3824.00
2022-10-19T08:28:03.564Z,3536.00
2022-10-19T08:29:03.538Z,3152.00
2022-10-19T08:30:03.521Z,2704.00
2022-10-19T08:31:03.570Z,2284.00
2022-10-19T08:32:03.500Z,1976.00
2022-10-19T08:33:03.491Z,1668.00
2022-10-19T08:34:03.472Z,1632.00
2022-10-19T08:35:07.211Z,1784.00
2022-10-19T08:36:04.461Z,1916.00
2022-10-19T08:37:10.244Z,2464.00
2022-10-19T08:38:04.419Z,3212.00
2022-10-19T08:39:03.451Z,3608.00
2022-10-19T08:40:03.417Z,3820.00
2022-10-19T08:41:03.381Z,3952.00
2022-10-19T08:42:03.400Z,4052.00
2022-10-19T08:43:03.367Z,4092.00
2022-10-19T08:44:06.231Z,4048.00
2022-10-19T08:45:04.341Z,3948.00
2022-10-19T08:46:03.332Z,3840.00
2022-10-19T08:47:03.888Z,3788.00
2022-10-19T08:48:03.345Z,3812.00
2022-10-19T08:49:03.340Z,3972.00
2022-10-19T08:50:03.277Z,4264.00
2022-10-19T08:51:03.252Z,4548.00
2022-10-19T08:52:03.242Z,4720.00
2022-10-19T08:53:03.272Z,4780.00
2022-10-19T08:54:04.700Z,4736.00
2022-10-19T08:55:03.233Z,4588.00
2022-10-19T08:56:04.448Z,4544.00
2022-10-19T08:57:03.177Z,4528.00
2022-10-19T08:58:03.173Z,4560.00
2022-10-19T08:59:03.175Z,4564.00
2022-10-19T09:00:03.155Z,4568.00
2022-10-19T09:01:03.132Z,4536.00
2022-10-19T09:02:03.131Z,4416.00
2022-10-19T09:03:03.112Z,4316.00
2022-10-19T09:04:03.200Z,4180.00
2022-10-19T09:05:03.151Z,4244.00
2022-10-19T09:06:03.062Z,4560.00
2022-10-19T09:07:03.101Z,4616.00
2022-10-19T09:08:03.031Z,4828.00
2022-10-19T09:09:03.071Z,5036.00
2022-10-19T09:10:03.054Z,5188.00
2022-10-19T09:11:03.013Z,5192.00
2022-10-19T09:12:02.993Z,5288.00
2022-10-19T09:13:02.997Z,5332.00
2022-10-19T09:14:05.423Z,5244.00
2022-10-19T09:15:02.954Z,5184.00
2022-10-19T09:16:02.965Z,5136.00
2022-10-19T09:17:02.934Z,5116.00
2022-10-19T09:18:02.932Z,5368.00
2022-10-19T09:19:02.909Z,5520.00
2022-10-19T09:20:02.895Z,5460.00
2022-10-19T09:21:02.869Z,5308.00
2022-10-19T09:22:02.959Z,5400.00
2022-10-19T09:23:02.840Z,5572.00
2022-10-19T09:24:02.832Z,5632.00
2022-10-19T09:25:02.834Z,5664.00
2022-10-19T09:26:02.805Z,5780.00
2022-10-19T09:27:02.804Z,5916.00
2022-10-19T09:28:02.805Z,5904.00
2022-10-19T09:29:03.108Z,5688.00
2022-10-19T09:30:02.797Z,5680.00
2022-10-19T09:31:02.735Z,5716.00
2022-10-19T09:32:02.734Z,5656.00
2022-10-19T09:33:02.762Z,5648.00
2022-10-19T09:34:02.693Z,5684.00
2022-10-19T09:35:02.767Z,5780.00
2022-10-19T09:36:02.715Z,5908.00
2022-10-19T09:37:02.691Z,5856.00
2022-10-19T09:38:02.648Z,6824.00
2022-10-19T09:39:02.624Z,5652.00
2022-10-19T09:40:02.615Z,5572.00
2022-10-19T09:41:02.606Z,5432.00
2022-10-19T09:42:02.596Z,5512.00
2022-10-19T09:43:02.575Z,5968.00
2022-10-19T09:44:02.576Z,5212.00
2022-10-19T09:45:02.576Z,5152.00
2022-10-19T09:46:02.547Z,5352.00
2022-10-19T09:47:02.526Z,5012.00
2022-10-19T09:48:08.792Z,4984.00
2022-10-19T09:49:03.505Z,4956.00
2022-10-19T09:50:02.504Z,4768.00
2022-10-19T09:51:02.482Z,4756.00
2022-10-19T09:52:02.456Z,5116.00
2022-10-19T09:53:02.446Z,4980.00
2022-10-19T09:54:02.435Z,5032.00
2022-10-19T09:55:02.416Z,5092.00
2022-10-19T09:56:02.444Z,5244.00
2022-10-19T09:57:02.405Z,5400.00
2022-10-19T09:58:02.377Z,5520.00
2022-10-19T09:59:02.367Z,5560.00
2022-10-19T10:00:02.379Z,5504.00
2022-10-19T10:01:02.426Z,5460.00
2022-10-19T10:03:02.317Z,5668.00
2022-10-19T10:04:02.364Z,6136.00
2022-10-19T10:05:02.340Z,6092.00
2022-10-19T10:06:02.295Z,6192.00
2022-10-19T10:07:02.277Z,6924.00
2022-10-19T10:08:02.267Z,6432.00
2022-10-19T10:09:02.425Z,6700.00
2022-10-19T10:10:02.228Z,5808.00
2022-10-19T10:11:02.218Z,5760.00
2022-10-19T10:12:02.207Z,5648.00
2022-10-19T10:13:02.208Z,5500.00
